sensor_id;sensor_type;location;lat;lon;timestamp;P1;durP1;ratioP1;P2;durP2;ratioP2
30888;SDS011;51092;50.874;7.024;2023-03-31T00:00:34;6.13;;;1.50;;
30888;SDS011;51092;50.874;7.024;2023-03-31T00:01:37;6.45;;;1.45;;
30888;SDS011;51092;50.874;7.024;2023-03-31T00:02:42;7.57;;;1.70;;
30888;SDS011;51092;50.874;7.024;2023-03-31T00:03:43;9.35;;;1.88;;
30888;SDS011;51092;50.874;7.024;2023-03-31T00:04:46;8.90;;;1.38;;
30888;SDS011;51092;50.874;7.024;2023-03-31T00:05:55;4.35;;;1.42;;
30888;SDS011;51092;50.874;7.024;2023-03-31T00:06:58;6.50;;;1.50;;
30888;SDS011;51092;50.874;7.024;2023-03-31T00:08:01;6.22;;;1.60;;
30888;SDS011;51092;50.874;7.024;2023-03-31T00:09:03;6.10;;;1.45;;
30888;SDS011;51092;50.874;7.024;2023-03-31T00:10:07;5.85;;;1.40;;
30888;SDS011;51092;50.874;7.024;2023-03-31T00:11:10;5.35;;;1.40;;
30888;SDS011;51092;50.874;7.024;2023-03-31T00:12:13;6.10;;;1.30;;
30888;SDS011;51092;50.874;7.024;2023-03-31T00:13:15;6.50;;;1.17;;
30888;SDS011;51092;50.874;7.024;2023-03-31T00:14:18;15.38;;;3.33;;
30888;SDS011;51092;50.874;7.024;2023-03-31T00:15:21;4.53;;;1.83;;
30888;SDS011;51092;50.874;7.024;2023-03-31T00:16:23;5.20;;;1.63;;
30888;SDS011;51092;50.874;7.024;2023-03-31T00:17:26;8.02;;;1.65;;
30888;SDS011;51092;50.874;7.024;2023-03-31T00:18:32;8.48;;;1.10;;
30888;SDS011;51092;50.874;7.024;2023-03-31T00:19:34;4.65;;;1.42;;
30888;SDS011;51092;50.874;7.024;2023-03-31T00:20:36;6.32;;;1.20;;
30888;SDS011;51092;50.874;7.024;2023-03-31T00:21:38;4.70;;;1.30;;
30888;SDS011;51092;50.874;7.024;2023-03-31T00:22:42;6.20;;;1.38;;
30888;SDS011;51092;50.874;7.024;2023-03-31T00:23:46;6.15;;;1.15;;
30888;SDS011;51092;50.874;7.024;2023-03-31T00:24:48;6.03;;;1.63;;
30888;SDS011;51092;50.874;7.024;2023-03-31T00:25:50;7.40;;;1.60;;
30888;SDS011;51092;50.874;7.024;2023-03-31T00:26:52;6.30;;;1.45;;
30888;SDS011;51092;50.874;7.024;2023-03-31T00:27:55;7.28;;;1.75;;
30888;SDS011;51092;50.874;7.024;2023-03-31T00:28:57;7.43;;;2.25;;
30888;SDS011;51092;50.874;7.024;2023-03-31T00:30:01;5.20;;;1.42;;
30888;SDS011;51092;50.874;7.024;2023-03-31T00:31:02;7.82;;;1.45;;
30888;SDS011;51092;50.874;7.024;2023-03-31T00:32:05;5.35;;;1.20;;
30888;SDS011;51092;50.874;7.024;2023-03-31T00:33:09;5.70;;;1.58;;
30888;SDS011;51092;50.874;7.024;2023-03-31T00:34:10;6.70;;;1.75;;
30888;SDS011;51092;50.874;7.024;2023-03-31T00:35:13;7.65;;;1.50;;
30888;SDS011;51092;50.874;7.024;2023-03-31T00:36:14;8.30;;;1.67;;
30888;SDS011;51092;50.874;7.024;2023-03-31T00:37:20;5.15;;;1.27;;
30888;SDS011;51092;50.874;7.024;2023-03-31T00:38:22;7.25;;;1.42;;
30888;SDS011;51092;50.874;7.024;2023-03-31T00:39:25;5.88;;;1.60;;
30888;SDS011;51092;50.874;7.024;2023-03-31T00:40:29;7.32;;;1.42;;
30888;SDS011;51092;50.874;7.024;2023-03-31T00:41:31;6.43;;;1.30;;
30888;SDS011;51092;50.874;7.024;2023-03-31T00:42:33;5.82;;;1.88;;
30888;SDS011;51092;50.874;7.024;2023-03-31T00:43:39;5.60;;;1.55;;
30888;SDS011;51092;50.874;7.024;2023-03-31T00:46:23;7.03;;;1.88;;
30888;SDS011;51092;50.874;7.024;2023-03-31T00:47:30;6.95;;;1.75;;
30888;SDS011;51092;50.874;7.024;2023-03-31T00:48:32;5.95;;;1.85;;
30888;SDS011;51092;50.874;7.024;2023-03-31T00:49:37;3.90;;;1.55;;
30888;SDS011;51092;50.874;7.024;2023-03-31T00:50:43;4.05;;;1.65;;
30888;SDS011;51092;50.874;7.024;2023-03-31T00:51:50;8.00;;;1.65;;
30888;SDS011;51092;50.874;7.024;2023-03-31T00:52:55;3.63;;;1.30;;
30888;SDS011;51092;50.874;7.024;2023-03-31T00:54:02;5.78;;;1.50;;
30888;SDS011;51092;50.874;7.024;2023-03-31T00:55:07;5.40;;;1.40;;
30888;SDS011;51092;50.874;7.024;2023-03-31T00:56:20;7.13;;;1.67;;
30888;SDS011;51092;50.874;7.024;2023-03-31T00:57:23;7.25;;;1.45;;
30888;SDS011;51092;50.874;7.024;2023-03-31T00:58:28;5.35;;;1.17;;
30888;SDS011;51092;50.874;7.024;2023-03-31T00:59:33;4.28;;;1.40;;
30888;SDS011;51092;50.874;7.024;2023-03-31T01:00:37;6.20;;;1.38;;
30888;SDS011;51092;50.874;7.024;2023-03-31T01:01:41;8.60;;;1.73;;
30888;SDS011;51092;50.874;7.024;2023-03-31T01:02:47;10.25;;;1.40;;
30888;SDS011;51092;50.874;7.024;2023-03-31T01:03:56;8.38;;;1.73;;
30888;SDS011;51092;50.874;7.024;2023-03-31T01:04:58;7.05;;;1.30;;
30888;SDS011;51092;50.874;7.024;2023-03-31T01:06:02;8.52;;;2.03;;
30888;SDS011;51092;50.874;7.024;2023-03-31T01:07:12;5.78;;;1.73;;
30888;SDS011;51092;50.874;7.024;2023-03-31T01:08:19;8.35;;;1.50;;
30888;SDS011;51092;50.874;7.024;2023-03-31T01:09:26;6.03;;;1.52;;
30888;SDS011;51092;50.874;7.024;2023-03-31T01:10:35;6.53;;;1.75;;
30888;SDS011;51092;50.874;7.024;2023-03-31T01:11:41;9.38;;;2.03;;
30888;SDS011;51092;50.874;7.024;2023-03-31T01:12:46;7.25;;;1.25;;
30888;SDS011;51092;50.874;7.024;2023-03-31T01:13:51;4.60;;;1.60;;
30888;SDS011;51092;50.874;7.024;2023-03-31T01:14:55;4.70;;;1.00;;
30888;SDS011;51092;50.874;7.024;2023-03-31T01:15:57;3.78;;;1.40;;
30888;SDS011;51092;50.874;7.024;2023-03-31T01:16:59;4.88;;;1.48;;
30888;SDS011;51092;50.874;7.024;2023-03-31T01:18:02;4.68;;;1.17;;
30888;SDS011;51092;50.874;7.024;2023-03-31T01:19:08;6.07;;;1.17;;
30888;SDS011;51092;50.874;7.024;2023-03-31T01:20:20;4.95;;;1.25;;
30888;SDS011;51092;50.874;7.024;2023-03-31T01:21:44;5.47;;;1.17;;
30888;SDS011;51092;50.874;7.024;2023-03-31T01:23:09;7.07;;;1.92;;
30888;SDS011;51092;50.874;7.024;2023-03-31T01:24:56;7.88;;;1.33;;
30888;SDS011;51092;50.874;7.024;2023-03-31T01:27:49;9.45;;;1.63;;
30888;SDS011;51092;50.874;7.024;2023-03-31T01:29:01;3.92;;;1.30;;
30888;SDS011;51092;50.874;7.024;2023-03-31T01:30:12;6.70;;;1.48;;
30888;SDS011;51092;50.874;7.024;2023-03-31T01:31:34;7.80;;;1.50;;
30888;SDS011;51092;50.874;7.024;2023-03-31T01:33:08;6.18;;;1.58;;
30888;SDS011;51092;50.874;7.024;2023-03-31T01:34:32;3.78;;;1.20;;
30888;SDS011;51092;50.874;7.024;2023-03-31T01:36:01;7.25;;;1.20;;
30888;SDS011;51092;50.874;7.024;2023-03-31T01:37:36;8.88;;;1.60;;
30888;SDS011;51092;50.874;7.024;2023-03-31T01:39:14;8.00;;;1.45;;
30888;SDS011;51092;50.874;7.024;2023-03-31T01:43:16;4.70;;;1.23;;
30888;SDS011;51092;50.874;7.024;2023-03-31T01:44:26;3.83;;;1.58;;
30888;SDS011;51092;50.874;7.024;2023-03-31T01:45:36;5.03;;;1.50;;
30888;SDS011;51092;50.874;7.024;2023-03-31T01:46:49;3.10;;;1.30;;
30888;SDS011;51092;50.874;7.024;2023-03-31T01:47:56;4.85;;;0.90;;
30888;SDS011;51092;50.874;7.024;2023-03-31T01:49:05;4.50;;;0.98;;
30888;SDS011;51092;50.874;7.024;2023-03-31T01:50:17;4.97;;;1.27;;
30888;SDS011;51092;50.874;7.024;2023-03-31T01:51:25;5.53;;;1.65;;
30888;SDS011;51092;50.874;7.024;2023-03-31T01:52:34;8.32;;;1.95;;
30888;SDS011;51092;50.874;7.024;2023-03-31T01:53:43;7.70;;;1.40;;
30888;SDS011;51092;50.874;7.024;2023-03-31T01:54:53;5.05;;;1.35;;
30888;SDS011;51092;50.874;7.024;2023-03-31T01:56:00;7.15;;;1.50;;
30888;SDS011;51092;50.874;7.024;2023-03-31T01:57:10;8.15;;;1.80;;
30888;SDS011;51092;50.874;7.024;2023-03-31T01:58:17;6.75;;;1.90;;
30888;SDS011;51092;50.874;7.024;2023-03-31T01:59:25;10.27;;;1.60;;
30888;SDS011;51092;50.874;7.024;2023-03-31T02:00:30;7.90;;;1.40;;
30888;SDS011;51092;50.874;7.024;2023-03-31T02:01:37;6.72;;;1.48;;
30888;SDS011;51092;50.874;7.024;2023-03-31T02:02:44;7.97;;;1.75;;
30888;SDS011;51092;50.874;7.024;2023-03-31T02:03:50;6.55;;;1.20;;
30888;SDS011;51092;50.874;7.024;2023-03-31T02:04:56;5.07;;;1.35;;
30888;SDS011;51092;50.874;7.024;2023-03-31T02:06:02;8.60;;;1.95;;
30888;SDS011;51092;50.874;7.024;2023-03-31T02:07:11;7.75;;;2.47;;
30888;SDS011;51092;50.874;7.024;2023-03-31T02:08:19;10.02;;;2.25;;
30888;SDS011;51092;50.874;7.024;2023-03-31T02:09:24;8.55;;;1.52;;
30888;SDS011;51092;50.874;7.024;2023-03-31T02:10:34;9.35;;;1.77;;
30888;SDS011;51092;50.874;7.024;2023-03-31T02:11:36;9.18;;;1.85;;
30888;SDS011;51092;50.874;7.024;2023-03-31T02:12:41;13.07;;;2.97;;
30888;SDS011;51092;50.874;7.024;2023-03-31T02:13:44;9.90;;;2.88;;
30888;SDS011;51092;50.874;7.024;2023-03-31T02:14:50;11.15;;;2.35;;
30888;SDS011;51092;50.874;7.024;2023-03-31T02:15:54;11.38;;;2.92;;
30888;SDS011;51092;50.874;7.024;2023-03-31T02:17:01;15.40;;;2.13;;
30888;SDS011;51092;50.874;7.024;2023-03-31T02:18:05;15.45;;;2.00;;
30888;SDS011;51092;50.874;7.024;2023-03-31T02:19:11;14.13;;;2.88;;
30888;SDS011;51092;50.874;7.024;2023-03-31T02:20:18;14.07;;;2.97;;
30888;SDS011;51092;50.874;7.024;2023-03-31T02:21:22;12.80;;;2.78;;
30888;SDS011;51092;50.874;7.024;2023-03-31T02:22:24;11.77;;;2.72;;
30888;SDS011;51092;50.874;7.024;2023-03-31T02:23:31;13.88;;;2.67;;
30888;SDS011;51092;50.874;7.024;2023-03-31T02:24:35;14.23;;;2.28;;
30888;SDS011;51092;50.874;7.024;2023-03-31T02:25:41;12.55;;;2.70;;
30888;SDS011;51092;50.874;7.024;2023-03-31T02:26:48;15.23;;;2.83;;
30888;SDS011;51092;50.874;7.024;2023-03-31T02:27:54;11.30;;;2.10;;
30888;SDS011;51092;50.874;7.024;2023-03-31T02:29:00;11.18;;;2.20;;
30888;SDS011;51092;50.874;7.024;2023-03-31T02:30:02;15.05;;;2.40;;
30888;SDS011;51092;50.874;7.024;2023-03-31T02:31:09;13.43;;;2.15;;
30888;SDS011;51092;50.874;7.024;2023-03-31T02:32:21;6.43;;;2.03;;
30888;SDS011;51092;50.874;7.024;2023-03-31T02:33:26;7.90;;;1.95;;
30888;SDS011;51092;50.874;7.024;2023-03-31T02:34:28;8.68;;;1.85;;
30888;SDS011;51092;50.874;7.024;2023-03-31T02:35:30;11.13;;;2.67;;
30888;SDS011;51092;50.874;7.024;2023-03-31T02:36:34;9.75;;;2.53;;
30888;SDS011;51092;50.874;7.024;2023-03-31T02:37:37;15.10;;;2.60;;
30888;SDS011;51092;50.874;7.024;2023-03-31T02:38:41;10.38;;;1.85;;
30888;SDS011;51092;50.874;7.024;2023-03-31T02:39:46;12.90;;;2.53;;
30888;SDS011;51092;50.874;7.024;2023-03-31T02:40:52;13.45;;;2.83;;
30888;SDS011;51092;50.874;7.024;2023-03-31T02:41:54;16.20;;;3.25;;
30888;SDS011;51092;50.874;7.024;2023-03-31T02:42:57;13.32;;;2.80;;
30888;SDS011;51092;50.874;7.024;2023-03-31T02:43:59;10.30;;;2.03;;
30888;SDS011;51092;50.874;7.024;2023-03-31T02:45:02;16.50;;;3.10;;
30888;SDS011;51092;50.874;7.024;2023-03-31T02:46:06;6.38;;;1.65;;
30888;SDS011;51092;50.874;7.024;2023-03-31T02:47:10;8.70;;;2.03;;
30888;SDS011;51092;50.874;7.024;2023-03-31T02:48:14;13.07;;;3.25;;
30888;SDS011;51092;50.874;7.024;2023-03-31T02:49:20;12.43;;;2.22;;
30888;SDS011;51092;50.874;7.024;2023-03-31T02:50:23;6.97;;;1.92;;
30888;SDS011;51092;50.874;7.024;2023-03-31T02:51:40;15.50;;;2.53;;
30888;SDS011;51092;50.874;7.024;2023-03-31T02:53:08;11.80;;;2.83;;
30888;SDS011;51092;50.874;7.024;2023-03-31T02:54:24;13.50;;;2.22;;
30888;SDS011;51092;50.874;7.024;2023-03-31T02:55:58;8.88;;;1.58;;
30888;SDS011;51092;50.874;7.024;2023-03-31T02:57:28;6.18;;;1.70;;
30888;SDS011;51092;50.874;7.024;2023-03-31T02:59:11;11.55;;;3.13;;
30888;SDS011;51092;50.874;7.024;2023-03-31T03:00:25;7.10;;;1.77;;
30888;SDS011;51092;50.874;7.024;2023-03-31T03:01:42;11.27;;;2.72;;
30888;SDS011;51092;50.874;7.024;2023-03-31T03:03:18;8.95;;;1.90;;
30888;SDS011;51092;50.874;7.024;2023-03-31T03:04:34;10.93;;;3.28;;
30888;SDS011;51092;50.874;7.024;2023-03-31T03:05:49;15.50;;;2.95;;
30888;SDS011;51092;50.874;7.024;2023-03-31T03:07:00;13.35;;;3.03;;
30888;SDS011;51092;50.874;7.024;2023-03-31T03:08:09;9.43;;;1.88;;
30888;SDS011;51092;50.874;7.024;2023-03-31T03:09:23;10.48;;;2.47;;
30888;SDS011;51092;50.874;7.024;2023-03-31T03:10:34;14.25;;;2.97;;
30888;SDS011;51092;50.874;7.024;2023-03-31T03:11:49;13.63;;;2.63;;
30888;SDS011;51092;50.874;7.024;2023-03-31T03:13:00;14.77;;;3.35;;
30888;SDS011;51092;50.874;7.024;2023-03-31T03:15:15;10.38;;;2.05;;
30888;SDS011;51092;50.874;7.024;2023-03-31T03:16:21;11.57;;;2.67;;
30888;SDS011;51092;50.874;7.024;2023-03-31T03:17:27;12.40;;;2.28;;
30888;SDS011;51092;50.874;7.024;2023-03-31T03:18:33;9.25;;;1.85;;
30888;SDS011;51092;50.874;7.024;2023-03-31T03:19:36;12.52;;;2.40;;
30888;SDS011;51092;50.874;7.024;2023-03-31T03:20:37;9.15;;;2.17;;
30888;SDS011;51092;50.874;7.024;2023-03-31T03:21:41;7.82;;;2.22;;
30888;SDS011;51092;50.874;7.024;2023-03-31T03:22:42;13.15;;;3.15;;
30888;SDS011;51092;50.874;7.024;2023-03-31T03:23:45;7.32;;;1.90;;
30888;SDS011;51092;50.874;7.024;2023-03-31T03:24:46;7.72;;;2.75;;
30888;SDS011;51092;50.874;7.024;2023-03-31T03:25:49;10.48;;;2.28;;
30888;SDS011;51092;50.874;7.024;2023-03-31T03:26:52;11.02;;;2.47;;
30888;SDS011;51092;50.874;7.024;2023-03-31T03:27:55;11.18;;;2.33;;
30888;SDS011;51092;50.874;7.024;2023-03-31T03:28:57;8.02;;;2.22;;
30888;SDS011;51092;50.874;7.024;2023-03-31T03:29:58;11.60;;;2.60;;
30888;SDS011;51092;50.874;7.024;2023-03-31T03:31:02;9.52;;;1.80;;
30888;SDS011;51092;50.874;7.024;2023-03-31T03:32:04;10.70;;;2.90;;
30888;SDS011;51092;50.874;7.024;2023-03-31T03:33:06;12.73;;;2.28;;
30888;SDS011;51092;50.874;7.024;2023-03-31T03:34:08;11.65;;;1.98;;
30888;SDS011;51092;50.874;7.024;2023-03-31T03:35:10;8.38;;;3.00;;
30888;SDS011;51092;50.874;7.024;2023-03-31T03:36:12;9.02;;;1.83;;
30888;SDS011;51092;50.874;7.024;2023-03-31T03:37:15;12.27;;;2.35;;
30888;SDS011;51092;50.874;7.024;2023-03-31T03:38:16;11.10;;;3.45;;
30888;SDS011;51092;50.874;7.024;2023-03-31T03:39:19;10.00;;;2.38;;
30888;SDS011;51092;50.874;7.024;2023-03-31T03:40:20;9.35;;;2.65;;
30888;SDS011;51092;50.874;7.024;2023-03-31T03:41:23;6.20;;;1.60;;
30888;SDS011;51092;50.874;7.024;2023-03-31T03:42:26;9.32;;;2.85;;
30888;SDS011;51092;50.874;7.024;2023-03-31T03:43:28;11.27;;;2.67;;
30888;SDS011;51092;50.874;7.024;2023-03-31T03:44:30;6.72;;;2.40;;
30888;SDS011;51092;50.874;7.024;2023-03-31T03:45:32;7.35;;;2.25;;
30888;SDS011;51092;50.874;7.024;2023-03-31T03:46:34;15.10;;;2.17;;
30888;SDS011;51092;50.874;7.024;2023-03-31T03:47:36;10.07;;;2.90;;
30888;SDS011;51092;50.874;7.024;2023-03-31T03:48:38;13.05;;;2.67;;
30888;SDS011;51092;50.874;7.024;2023-03-31T03:49:40;13.10;;;2.67;;
30888;SDS011;51092;50.874;7.024;2023-03-31T03:50:42;11.38;;;2.47;;
30888;SDS011;51092;50.874;7.024;2023-03-31T03:51:46;9.60;;;2.22;;
30888;SDS011;51092;50.874;7.024;2023-03-31T03:52:47;8.75;;;2.42;;
30888;SDS011;51092;50.874;7.024;2023-03-31T03:53:50;16.92;;;2.88;;
30888;SDS011;51092;50.874;7.024;2023-03-31T03:54:51;6.60;;;2.17;;
30888;SDS011;51092;50.874;7.024;2023-03-31T03:55:54;6.43;;;2.05;;
30888;SDS011;51092;50.874;7.024;2023-03-31T03:56:55;10.55;;;1.50;;
30888;SDS011;51092;50.874;7.024;2023-03-31T03:57:59;7.93;;;2.22;;
30888;SDS011;51092;50.874;7.024;2023-03-31T03:59:00;8.35;;;2.00;;
30888;SDS011;51092;50.874;7.024;2023-03-31T04:00:03;9.52;;;1.90;;
30888;SDS011;51092;50.874;7.024;2023-03-31T04:01:09;8.20;;;2.10;;
30888;SDS011;51092;50.874;7.024;2023-03-31T04:02:11;8.20;;;1.92;;
30888;SDS011;51092;50.874;7.024;2023-03-31T04:03:13;11.15;;;2.38;;
30888;SDS011;51092;50.874;7.024;2023-03-31T04:04:16;8.50;;;2.33;;
30888;SDS011;51092;50.874;7.024;2023-03-31T04:05:19;13.27;;;2.85;;
30888;SDS011;51092;50.874;7.024;2023-03-31T04:06:20;10.40;;;2.67;;
30888;SDS011;51092;50.874;7.024;2023-03-31T04:07:23;9.68;;;1.67;;
30888;SDS011;51092;50.874;7.024;2023-03-31T04:08:24;8.70;;;2.10;;
30888;SDS011;51092;50.874;7.024;2023-03-31T04:09:28;10.15;;;2.45;;
30888;SDS011;51092;50.874;7.024;2023-03-31T04:10:30;6.10;;;1.75;;
30888;SDS011;51092;50.874;7.024;2023-03-31T04:11:32;8.38;;;2.05;;
30888;SDS011;51092;50.874;7.024;2023-03-31T04:12:34;8.68;;;3.05;;
30888;SDS011;51092;50.874;7.024;2023-03-31T04:13:38;12.50;;;1.98;;
30888;SDS011;51092;50.874;7.024;2023-03-31T04:14:39;9.45;;;2.80;;
30888;SDS011;51092;50.874;7.024;2023-03-31T04:15:42;8.95;;;3.40;;
30888;SDS011;51092;50.874;7.024;2023-03-31T04:16:44;7.32;;;2.00;;
30888;SDS011;51092;50.874;7.024;2023-03-31T04:17:48;9.13;;;2.10;;
30888;SDS011;51092;50.874;7.024;2023-03-31T04:18:54;11.85;;;2.00;;
30888;SDS011;51092;50.874;7.024;2023-03-31T04:19:59;9.55;;;1.95;;
30888;SDS011;51092;50.874;7.024;2023-03-31T04:21:02;6.53;;;1.92;;
30888;SDS011;51092;50.874;7.024;2023-03-31T04:22:04;10.40;;;2.30;;
30888;SDS011;51092;50.874;7.024;2023-03-31T04:23:11;7.18;;;1.77;;
30888;SDS011;51092;50.874;7.024;2023-03-31T04:24:14;7.38;;;2.05;;
30888;SDS011;51092;50.874;7.024;2023-03-31T04:25:21;7.18;;;1.92;;
30888;SDS011;51092;50.874;7.024;2023-03-31T04:26:23;7.45;;;1.75;;
30888;SDS011;51092;50.874;7.024;2023-03-31T04:27:31;8.50;;;2.00;;
30888;SDS011;51092;50.874;7.024;2023-03-31T04:28:34;5.50;;;1.92;;
30888;SDS011;51092;50.874;7.024;2023-03-31T04:29:37;8.32;;;1.77;;
30888;SDS011;51092;50.874;7.024;2023-03-31T04:30:40;5.88;;;2.35;;
30888;SDS011;51092;50.874;7.024;2023-03-31T04:31:41;10.20;;;1.65;;
30888;SDS011;51092;50.874;7.024;2023-03-31T04:32:44;11.68;;;2.85;;
30888;SDS011;51092;50.874;7.024;2023-03-31T04:33:46;11.57;;;2.83;;
30888;SDS011;51092;50.874;7.024;2023-03-31T04:34:50;6.93;;;1.65;;
30888;SDS011;51092;50.874;7.024;2023-03-31T04:35:51;11.07;;;2.67;;
30888;SDS011;51092;50.874;7.024;2023-03-31T04:36:54;8.35;;;2.25;;
30888;SDS011;51092;50.874;7.024;2023-03-31T04:37:56;6.00;;;2.72;;
30888;SDS011;51092;50.874;7.024;2023-03-31T04:38:59;7.65;;;2.13;;
30888;SDS011;51092;50.874;7.024;2023-03-31T04:40:01;8.23;;;1.92;;
30888;SDS011;51092;50.874;7.024;2023-03-31T04:41:09;5.35;;;1.88;;
30888;SDS011;51092;50.874;7.024;2023-03-31T04:42:11;8.30;;;1.50;;
30888;SDS011;51092;50.874;7.024;2023-03-31T04:43:14;5.88;;;1.65;;
30888;SDS011;51092;50.874;7.024;2023-03-31T04:44:17;7.60;;;2.28;;
30888;SDS011;51092;50.874;7.024;2023-03-31T04:45:20;8.38;;;1.98;;
30888;SDS011;51092;50.874;7.024;2023-03-31T04:46:22;7.72;;;1.60;;
30888;SDS011;51092;50.874;7.024;2023-03-31T04:47:25;4.10;;;1.13;;
30888;SDS011;51092;50.874;7.024;2023-03-31T04:48:27;6.05;;;1.83;;
30888;SDS011;51092;50.874;7.024;2023-03-31T04:49:29;5.32;;;2.08;;
30888;SDS011;51092;50.874;7.024;2023-03-31T04:50:33;4.57;;;1.85;;
30888;SDS011;51092;50.874;7.024;2023-03-31T04:51:34;6.47;;;2.08;;
30888;SDS011;51092;50.874;7.024;2023-03-31T04:52:37;5.68;;;1.33;;
30888;SDS011;51092;50.874;7.024;2023-03-31T04:53:39;7.00;;;1.60;;
30888;SDS011;51092;50.874;7.024;2023-03-31T04:54:42;7.70;;;1.65;;
30888;SDS011;51092;50.874;7.024;2023-03-31T04:55:43;5.35;;;1.92;;
30888;SDS011;51092;50.874;7.024;2023-03-31T04:56:46;3.17;;;1.50;;
30888;SDS011;51092;50.874;7.024;2023-03-31T04:57:48;5.40;;;1.23;;
30888;SDS011;51092;50.874;7.024;2023-03-31T04:58:51;4.35;;;1.40;;
30888;SDS011;51092;50.874;7.024;2023-03-31T04:59:53;3.05;;;1.42;;
30888;SDS011;51092;50.874;7.024;2023-03-31T05:00:56;4.85;;;1.40;;
30888;SDS011;51092;50.874;7.024;2023-03-31T05:01:58;2.30;;;1.30;;
30888;SDS011;51092;50.874;7.024;2023-03-31T05:03:00;3.65;;;1.27;;
30888;SDS011;51092;50.874;7.024;2023-03-31T05:04:03;8.13;;;1.77;;
30888;SDS011;51092;50.874;7.024;2023-03-31T05:05:05;7.43;;;1.73;;
30888;SDS011;51092;50.874;7.024;2023-03-31T05:06:08;5.93;;;1.88;;
30888;SDS011;51092;50.874;7.024;2023-03-31T05:07:09;4.15;;;1.13;;
30888;SDS011;51092;50.874;7.024;2023-03-31T05:08:12;6.53;;;1.30;;
30888;SDS011;51092;50.874;7.024;2023-03-31T05:09:13;6.18;;;1.50;;
30888;SDS011;51092;50.874;7.024;2023-03-31T05:10:16;5.97;;;1.70;;
30888;SDS011;51092;50.874;7.024;2023-03-31T05:11:18;5.13;;;1.35;;
30888;SDS011;51092;50.874;7.024;2023-03-31T05:12:21;4.07;;;1.60;;
30888;SDS011;51092;50.874;7.024;2023-03-31T05:13:22;4.32;;;1.30;;
30888;SDS011;51092;50.874;7.024;2023-03-31T05:14:25;3.58;;;1.08;;
30888;SDS011;51092;50.874;7.024;2023-03-31T05:15:26;7.50;;;1.75;;
30888;SDS011;51092;50.874;7.024;2023-03-31T05:16:30;5.63;;;1.60;;
30888;SDS011;51092;50.874;7.024;2023-03-31T05:17:31;8.52;;;1.42;;
30888;SDS011;51092;50.874;7.024;2023-03-31T05:18:35;3.30;;;1.13;;
30888;SDS011;51092;50.874;7.024;2023-03-31T05:19:36;4.63;;;1.80;;
30888;SDS011;51092;50.874;7.024;2023-03-31T05:20:38;6.57;;;1.88;;
30888;SDS011;51092;50.874;7.024;2023-03-31T05:21:40;11.73;;;1.52;;
30888;SDS011;51092;50.874;7.024;2023-03-31T05:22:42;5.00;;;1.50;;
30888;SDS011;51092;50.874;7.024;2023-03-31T05:23:44;6.13;;;1.70;;
30888;SDS011;51092;50.874;7.024;2023-03-31T05:24:47;3.15;;;1.25;;
30888;SDS011;51092;50.874;7.024;2023-03-31T05:25:48;5.68;;;1.35;;
30888;SDS011;51092;50.874;7.024;2023-03-31T05:26:50;3.85;;;1.20;;
30888;SDS011;51092;50.874;7.024;2023-03-31T05:27:52;4.32;;;1.55;;
30888;SDS011;51092;50.874;7.024;2023-03-31T05:28:56;5.47;;;1.23;;
30888;SDS011;51092;50.874;7.024;2023-03-31T05:29:57;5.97;;;1.40;;
30888;SDS011;51092;50.874;7.024;2023-03-31T05:31:00;4.97;;;1.15;;
30888;SDS011;51092;50.874;7.024;2023-03-31T05:32:04;7.35;;;1.42;;
30888;SDS011;51092;50.874;7.024;2023-03-31T05:33:06;4.95;;;1.48;;
30888;SDS011;51092;50.874;7.024;2023-03-31T05:34:08;5.55;;;2.05;;
30888;SDS011;51092;50.874;7.024;2023-03-31T05:35:10;5.95;;;1.95;;
30888;SDS011;51092;50.874;7.024;2023-03-31T05:36:13;4.05;;;1.30;;
30888;SDS011;51092;50.874;7.024;2023-03-31T05:37:18;5.95;;;1.60;;
30888;SDS011;51092;50.874;7.024;2023-03-31T05:38:20;7.93;;;1.75;;
30888;SDS011;51092;50.874;7.024;2023-03-31T05:39:23;4.63;;;1.52;;
30888;SDS011;51092;50.874;7.024;2023-03-31T05:40:24;5.22;;;1.25;;
30888;SDS011;51092;50.874;7.024;2023-03-31T05:41:27;8.80;;;1.70;;
30888;SDS011;51092;50.874;7.024;2023-03-31T05:42:28;8.85;;;1.95;;
30888;SDS011;51092;50.874;7.024;2023-03-31T05:43:31;7.30;;;1.30;;
30888;SDS011;51092;50.874;7.024;2023-03-31T05:44:32;6.28;;;1.88;;
30888;SDS011;51092;50.874;7.024;2023-03-31T05:45:35;2.97;;;1.13;;
30888;SDS011;51092;50.874;7.024;2023-03-31T05:46:36;2.65;;;1.20;;
30888;SDS011;51092;50.874;7.024;2023-03-31T05:47:41;7.13;;;1.33;;
30888;SDS011;51092;50.874;7.024;2023-03-31T05:48:42;6.10;;;1.42;;
30888;SDS011;51092;50.874;7.024;2023-03-31T05:49:45;4.97;;;1.10;;
30888;SDS011;51092;50.874;7.024;2023-03-31T05:50:47;5.40;;;1.40;;
30888;SDS011;51092;50.874;7.024;2023-03-31T05:51:49;5.82;;;1.45;;
30888;SDS011;51092;50.874;7.024;2023-03-31T05:52:51;4.40;;;1.75;;
30888;SDS011;51092;50.874;7.024;2023-03-31T05:53:54;2.60;;;1.10;;
30888;SDS011;51092;50.874;7.024;2023-03-31T05:54:55;6.15;;;1.92;;
30888;SDS011;51092;50.874;7.024;2023-03-31T05:55:58;3.42;;;1.10;;
30888;SDS011;51092;50.874;7.024;2023-03-31T05:57:01;5.63;;;1.15;;
30888;SDS011;51092;50.874;7.024;2023-03-31T05:58:04;4.63;;;1.50;;
30888;SDS011;51092;50.874;7.024;2023-03-31T05:59:07;3.67;;;1.50;;
30888;SDS011;51092;50.874;7.024;2023-03-31T06:00:10;4.70;;;1.05;;
30888;SDS011;51092;50.874;7.024;2023-03-31T06:01:14;5.55;;;0.95;;
30888;SDS011;51092;50.874;7.024;2023-03-31T06:02:20;11.25;;;1.10;;
30888;SDS011;51092;50.874;7.024;2023-03-31T06:03:23;4.30;;;0.95;;
30888;SDS011;51092;50.874;7.024;2023-03-31T06:04:26;2.85;;;0.90;;
30888;SDS011;51092;50.874;7.024;2023-03-31T06:05:28;4.30;;;0.70;;
30888;SDS011;51092;50.874;7.024;2023-03-31T06:06:31;2.70;;;1.13;;
30888;SDS011;51092;50.874;7.024;2023-03-31T06:07:34;4.68;;;1.30;;
30888;SDS011;51092;50.874;7.024;2023-03-31T06:08:36;2.58;;;1.02;;
30888;SDS011;51092;50.874;7.024;2023-03-31T06:09:39;1.45;;;0.80;;
30888;SDS011;51092;50.874;7.024;2023-03-31T06:10:41;4.05;;;0.70;;
30888;SDS011;51092;50.874;7.024;2023-03-31T06:11:44;1.17;;;0.55;;
30888;SDS011;51092;50.874;7.024;2023-03-31T06:12:47;3.65;;;1.00;;
30888;SDS011;51092;50.874;7.024;2023-03-31T06:13:49;1.05;;;0.50;;
30888;SDS011;51092;50.874;7.024;2023-03-31T06:14:51;1.10;;;0.63;;
30888;SDS011;51092;50.874;7.024;2023-03-31T06:15:53;2.65;;;0.60;;
30888;SDS011;51092;50.874;7.024;2023-03-31T06:16:57;1.65;;;0.60;;
30888;SDS011;51092;50.874;7.024;2023-03-31T06:17:59;0.75;;;0.50;;
30888;SDS011;51092;50.874;7.024;2023-03-31T06:19:02;0.95;;;0.50;;
30888;SDS011;51092;50.874;7.024;2023-03-31T06:20:05;3.42;;;0.90;;
30888;SDS011;51092;50.874;7.024;2023-03-31T06:21:08;3.15;;;0.57;;
30888;SDS011;51092;50.874;7.024;2023-03-31T06:22:13;1.35;;;0.68;;
30888;SDS011;51092;50.874;7.024;2023-03-31T06:23:15;1.67;;;0.60;;
30888;SDS011;51092;50.874;7.024;2023-03-31T06:24:17;1.42;;;0.50;;
30888;SDS011;51092;50.874;7.024;2023-03-31T06:25:19;2.65;;;0.47;;
30888;SDS011;51092;50.874;7.024;2023-03-31T06:26:21;2.70;;;0.65;;
30888;SDS011;51092;50.874;7.024;2023-03-31T06:27:23;2.10;;;0.60;;
30888;SDS011;51092;50.874;7.024;2023-03-31T06:28:26;0.80;;;0.50;;
30888;SDS011;51092;50.874;7.024;2023-03-31T06:29:28;1.08;;;0.43;;
30888;SDS011;51092;50.874;7.024;2023-03-31T06:30:30;2.35;;;0.60;;
30888;SDS011;51092;50.874;7.024;2023-03-31T06:31:32;2.17;;;0.77;;
30888;SDS011;51092;50.874;7.024;2023-03-31T06:32:35;1.95;;;0.88;;
30888;SDS011;51092;50.874;7.024;2023-03-31T06:33:36;2.38;;;0.50;;
30888;SDS011;51092;50.874;7.024;2023-03-31T06:34:40;0.77;;;0.50;;
30888;SDS011;51092;50.874;7.024;2023-03-31T06:35:42;1.40;;;0.50;;
30888;SDS011;51092;50.874;7.024;2023-03-31T06:36:45;0.80;;;0.40;;
30888;SDS011;51092;50.874;7.024;2023-03-31T06:37:48;1.02;;;0.50;;
30888;SDS011;51092;50.874;7.024;2023-03-31T06:38:49;0.70;;;0.30;;